Time;durP1;ratioP1;P1;durP2;ratioP2;P2;SDS_P1;SDS_P2;PMS_P1;PMS_P2;Temp;Humidity;BMP_temperature;BMP_pressure;BME280_temperature;BME280_humidity;BME280_pressure;Samples;Min_cycle;Max_cycle;Signal;HPM_P1;HPM_P2
2021/11/11 00:01:44;;;;;;;18.4;12;;;;;;;4.35;94.25195;942.3141;;;;
2021/11/11 00:04:19;;;;;;;18.9;11.7;;;;;;;4.3;94.15234;942.3539;;;;
2021/11/11 00:06:41;;;;;;;21.2;12;;;;;;;4.27;93.71875;942.3072;;;;
2021/11/11 00:09:07;;;;;;;18.6;11.2;;;;;;;4.26;93.85156;942.4542;;;;
2021/11/11 00:11:32;;;;;;;19.6;11.9;;;;;;;4.28;94.49902;942.3826;;;;
2021/11/11 00:13:58;;;;;;;19.7;14;;;;;;;4.26;94.22266;942.3911;;;;
2021/11/11 00:16:23;;;;;;;17.7;12.1;;;;;;;4.16;95;942.3978;;;;
2021/11/11 00:18:50;;;;;;;18.4;11.1;;;;;;;4.1;95.35742;942.36;;;;
2021/11/11 00:21:15;;;;;;;21.2;11.4;;;;;;;4.12;95.38379;942.408;;;;
2021/11/11 00:23:42;;;;;;;17;10.7;;;;;;;4.15;95.60547;942.3621;;;;
2021/11/11 00:26:05;;;;;;;16.7;10.4;;;;;;;4.19;95.19922;942.3699;;;;
2021/11/11 00:28:32;;;;;;;17.5;11.2;;;;;;;4.18;94.90234;942.3552;;;;
2021/11/11 00:30:57;;;;;;;19.1;11.7;;;;;;;4.22;94.4834;942.358;;;;
2021/11/11 00:33:23;;;;;;;17.4;11.6;;;;;;;4.18;94.44336;942.3909;;;;
2021/11/11 00:35:48;;;;;;;20.1;11.7;;;;;;;4.16;93.89941;942.4169;;;;
2021/11/11 00:38:15;;;;;;;19.6;11.3;;;;;;;4.18;93.4873;942.3979;;;;
2021/11/11 00:40:40;;;;;;;17.3;10.8;;;;;;;4.16;92.8291;942.3567;;;;
2021/11/11 00:43:05;;;;;;;16.1;9.8;;;;;;;4.16;92.43457;942.3032;;;;
2021/11/11 00:45:30;;;;;;;18.8;10.5;;;;;;;4.02;94.5293;942.3748;;;;
2021/11/11 00:47:56;;;;;;;17.3;11.3;;;;;;;3.97;95.87988;942.3363;;;;
2021/11/11 00:50:20;;;;;;;19.7;11.2;;;;;;;3.96;95.6748;942.2469;;;;
2021/11/11 00:52:47;;;;;;;18.9;11.6;;;;;;;3.87;95.7002;942.2739;;;;
2021/11/11 00:55:12;;;;;;;17;10.9;;;;;;;3.72;96.80078;942.2542;;;;
2021/11/11 00:57:38;;;;;;;19;11.3;;;;;;;3.68;98.20801;942.1856;;;;
2021/11/11 01:00:02;;;;;;;17.9;11.4;;;;;;;3.84;97.82715;942.2617;;;;
2021/11/11 01:02:29;;;;;;;17.7;11;;;;;;;3.89;96.94043;942.2678;;;;
2021/11/11 01:04:54;;;;;;;18.1;10.4;;;;;;;3.9;96.28125;942.1367;;;;
2021/11/11 01:07:20;;;;;;;19.6;11.1;;;;;;;3.85;95.99902;942.1244;;;;
2021/11/11 01:09:45;;;;;;;16.6;10.6;;;;;;;3.97;95.86816;942.1803;;;;
2021/11/11 01:12:11;;;;;;;19.6;10.3;;;;;;;3.97;95.80078;942.171;;;;
2021/11/11 01:14:36;;;;;;;16.8;9.7;;;;;;;3.99;95.37793;942.1253;;;;
2021/11/11 01:17:03;;;;;;;16.8;10.5;;;;;;;4.04;94.92871;942.1676;;;;
2021/11/11 01:19:28;;;;;;;21.2;11.4;;;;;;;4.03;94.28613;942.15;;;;
2021/11/11 01:21:58;;;;;;;16.9;9.3;;;;;;;4.07;93.87793;942.1674;;;;
2021/11/11 01:24:22;;;;;;;14.9;9.7;;;;;;;4.01;93.89941;942.1767;;;;
2021/11/11 01:26:48;;;;;;;17.3;9.7;;;;;;;4.03;93.7793;942.1091;;;;
2021/11/11 01:29:13;;;;;;;16.2;9.1;;;;;;;4.02;93.35059;941.9803;;;;
2021/11/11 01:31:38;;;;;;;14.9;9.5;;;;;;;4.08;92.9707;942.074;;;;
2021/11/11 01:34:03;;;;;;;13.3;8.9;;;;;;;4.07;93.2793;942.0821;;;;
2021/11/11 01:36:29;;;;;;;15;9.2;;;;;;;4.01;93.33691;942.072;;;;
2021/11/11 01:38:53;;;;;;;13.3;8.6;;;;;;;3.86;94.84375;942.0316;;;;
2021/11/11 01:41:20;;;;;;;14.4;9.6;;;;;;;3.64;97.50293;942.0714;;;;
2021/11/11 01:43:46;;;;;;;13.2;8.8;;;;;;;3.55;98.57227;941.9335;;;;
2021/11/11 01:46:11;;;;;;;13.8;9;;;;;;;3.67;99.02637;942.0048;;;;
2021/11/11 01:48:36;;;;;;;14.5;8.2;;;;;;;3.78;100;942.0386;;;;
2021/11/11 01:51:01;;;;;;;13.5;7.9;;;;;;;3.9;100;941.972;;;;
2021/11/11 01:53:26;;;;;;;13.8;7.7;;;;;;;4.06;99.83594;941.918;;;;
2021/11/11 01:55:51;;;;;;;12.4;7.7;;;;;;;4.12;99.11816;941.9486;;;;
2021/11/11 01:58:16;;;;;;;12.6;7.4;;;;;;;4.21;98.29688;941.9384;;;;
2021/11/11 02:00:42;;;;;;;11.6;7.4;;;;;;;4.21;97.22852;941.9621;;;;
2021/11/11 02:03:07;;;;;;;12.3;7.2;;;;;;;4.26;97.02441;941.9166;;;;
2021/11/11 02:05:32;;;;;;;11.9;7.3;;;;;;;4.32;96.65625;941.8527;;;;
2021/11/11 02:07:58;;;;;;;13.9;7.4;;;;;;;4.22;95.72266;941.8301;;;;
2021/11/11 02:10:23;;;;;;;10;6.3;;;;;;;4.22;96.07129;941.8317;;;;
2021/11/11 02:12:49;;;;;;;9.4;6.2;;;;;;;4.15;96.5498;941.7994;;;;
2021/11/11 02:15:14;;;;;;;12.4;6.5;;;;;;;4.18;96.32031;941.701;;;;
2021/11/11 02:17:41;;;;;;;12.3;6;;;;;;;4.07;96.41895;941.6694;;;;
2021/11/11 02:20:06;;;;;;;10.4;6.1;;;;;;;4.12;97.20801;941.6423;;;;
2021/11/11 02:22:32;;;;;;;10.7;6.6;;;;;;;4.16;97.1377;941.6057;;;;
2021/11/11 02:24:57;;;;;;;8.1;5.4;;;;;;;4.1;97.63086;941.5785;;;;
2021/11/11 02:27:24;;;;;;;10.5;6.6;;;;;;;3.96;98.3291;941.5891;;;;
2021/11/11 02:29:49;;;;;;;11.2;6.9;;;;;;;3.99;98.70605;941.6754;;;;
2021/11/11 02:32:15;;;;;;;10.3;6.1;;;;;;;4.1;98.54199;941.5492;;;;
2021/11/11 02:35:38;;;;;;;11.2;6.2;;;;;;;4.2;97.84277;941.5552;;;;
2021/11/11 02:37:51;;;;;;;10.3;6.2;;;;;;;4.28;96.53418;941.4681;;;;
2021/11/11 02:40:17;;;;;;;11.2;6.2;;;;;;;4.28;95.78223;941.4919;;;;
2021/11/11 02:42:42;;;;;;;9.4;6;;;;;;;4.35;95.17676;941.544;;;;
2021/11/11 02:45:09;;;;;;;9.8;5.6;;;;;;;4.3;95.61719;941.4752;;;;
2021/11/11 02:47:34;;;;;;;9.3;5.5;;;;;;;4.31;95.4375;941.4171;;;;
2021/11/11 02:50:00;;;;;;;8.7;5.4;;;;;;;4.33;95.06055;941.4504;;;;
2021/11/11 02:52:25;;;;;;;13.2;6.9;;;;;;;4.12;95.88965;941.349;;;;
2021/11/11 02:54:50;;;;;;;14.5;8.3;;;;;;;4.28;96.83984;941.3428;;;;
2021/11/11 02:57:15;;;;;;;8.1;5.4;;;;;;;4.36;96.93652;941.3317;;;;
2021/11/11 03:00:02;;;;;;;9.3;5.3;;;;;;;4.44;97.18066;941.2875;;;;
2021/11/11 03:02:27;;;;;;;9.2;5.6;;;;;;;4.48;95.46484;941.371;;;;
2021/11/11 03:04:52;;;;;;;8.8;5.3;;;;;;;4.43;95.25195;941.3401;;;;
2021/11/11 03:07:17;;;;;;;8.6;5.8;;;;;;;4.47;94.84473;941.2492;;;;
2021/11/11 03:09:44;;;;;;;9.6;5.5;;;;;;;4.58;93.69629;941.3567;;;;
2021/11/11 03:12:09;;;;;;;8;5.1;;;;;;;4.48;93.9668;941.4033;;;;
2021/11/11 03:14:34;;;;;;;9.5;5.4;;;;;;;4.52;93.56055;941.4908;;;;
2021/11/11 03:16:59;;;;;;;9;5.5;;;;;;;4.52;93.35742;941.5231;;;;
2021/11/11 03:19:24;;;;;;;9.3;5.1;;;;;;;4.49;93.14941;941.5079;;;;
2021/11/11 03:21:49;;;;;;;10.4;5.5;;;;;;;4.44;92.93652;941.5502;;;;
2021/11/11 03:24:14;;;;;;;8;5.7;;;;;;;4.28;93.74316;941.5602;;;;
2021/11/11 03:26:39;;;;;;;15.1;7.9;;;;;;;4.3;94.04004;941.5374;;;;
2021/11/11 03:29:05;;;;;;;11.6;5.8;;;;;;;4.25;94.69336;941.6127;;;;
2021/11/11 03:31:30;;;;;;;12.3;5.8;;;;;;;4.33;94.45313;941.6008;;;;
2021/11/11 03:33:56;;;;;;;9.7;5.6;;;;;;;4.38;93.96973;941.6589;;;;
2021/11/11 03:36:20;;;;;;;11;6;;;;;;;4.44;93.66797;941.6676;;;;
2021/11/11 03:38:45;;;;;;;10.6;5.9;;;;;;;4.5;93.3877;941.6336;;;;
2021/11/11 03:41:11;;;;;;;11;6.6;;;;;;;4.46;93.22168;941.6739;;;;
2021/11/11 03:43:36;;;;;;;12.1;6.6;;;;;;;4.41;93.91895;941.7727;;;;
2021/11/11 03:46:03;;;;;;;11.3;6.8;;;;;;;4.39;93.99414;941.8248;;;;
2021/11/11 03:48:28;;;;;;;8.7;5.7;;;;;;;4.34;93.38574;941.7722;;;;
2021/11/11 03:50:54;;;;;;;8.8;5.4;;;;;;;4.24;94.14063;941.7843;;;;
2021/11/11 03:53:19;;;;;;;9.4;5.8;;;;;;;4.16;94.29297;941.6736;;;;
2021/11/11 03:55:46;;;;;;;10.9;5.6;;;;;;;4.24;94.28711;941.7379;;;;
2021/11/11 03:58:15;;;;;;;9;5.8;;;;;;;4.29;94.0957;941.7058;;;;
2021/11/11 04:02:30;;;;;;;7.5;4.7;;;;;;;4.3;94.55762;941.6389;;;;
2021/11/11 04:04:55;;;;;;;9.9;5.4;;;;;;;4.12;95.54297;941.7707;;;;
2021/11/11 04:07:21;;;;;;;11.1;6.2;;;;;;;4.17;97.30762;941.6866;;;;
2021/11/11 04:09:46;;;;;;;11.3;5.5;;;;;;;4.18;96.91602;941.7523;;;;
2021/11/11 04:12:13;;;;;;;10;5.2;;;;;;;4.35;96.26855;941.6127;;;;
2021/11/11 04:14:37;;;;;;;9;5.3;;;;;;;4.41;95.04492;941.645;;;;
2021/11/11 04:17:02;;;;;;;12.6;6.7;;;;;;;4.3;95.48047;941.6792;;;;
2021/11/11 04:19:28;;;;;;;9.7;6;;;;;;;4.12;97.41895;941.7619;;;;
2021/11/11 04:21:53;;;;;;;10.2;6.1;;;;;;;4.23;98.50391;941.742;;;;
2021/11/11 04:24:18;;;;;;;9;5;;;;;;;4.42;97.82715;941.7084;;;;
2021/11/11 04:26:52;;;;;;;10.2;5.2;;;;;;;4.49;96.26758;941.8013;;;;
2021/11/11 04:29:13;;;;;;;7.8;4.9;;;;;;;4.43;95.30762;941.7388;;;;
2021/11/11 04:31:36;;;;;;;11;5.5;;;;;;;4.22;95.62109;941.8055;;;;
2021/11/11 04:34:01;;;;;;;11.9;6;;;;;;;4.06;97.08105;941.7886;;;;
2021/11/11 04:36:47;;;;;;;14.2;6.5;;;;;;;4.13;97.41211;941.7819;;;;
2021/11/11 04:39:00;;;;;;;10.6;6.4;;;;;;;4.32;96.63379;941.9025;;;;
2021/11/11 04:41:31;;;;;;;17.7;7;;;;;;;4.34;95.79395;941.9393;;;;
2021/11/11 04:46:29;;;;;;;13.2;7.1;;;;;;;4.53;94.33691;941.9373;;;;
2021/11/11 04:49:32;;;;;;;13.6;7.6;;;;;;;4.48;93.62891;941.9575;;;;
2021/11/11 04:51:50;;;;;;;16.9;8.9;;;;;;;4.2;95.40332;941.8936;;;;
2021/11/11 05:01:21;;;;;;;18;11.3;;;;;;;4.17;96.58789;942.0154;;;;
2021/11/11 05:03:40;;;;;;;18.9;10.9;;;;;;;4.18;96.78125;942.0131;;;;
2021/11/11 05:06:05;;;;;;;17.9;10.4;;;;;;;4.2;96.24512;942.0344;;;;
2021/11/11 05:08:30;;;;;;;16.1;9.1;;;;;;;4.24;95.55762;942.0712;;;;
2021/11/11 05:10:55;;;;;;;16.5;9.5;;;;;;;4.32;94.86719;942.041;;;;
2021/11/11 05:13:20;;;;;;;14.6;8.7;;;;;;;4.29;94.64746;941.9594;;;;
2021/11/11 05:15:45;;;;;;;14.6;7.8;;;;;;;4.28;94.62109;942.0095;;;;
2021/11/11 05:18:11;;;;;;;18.6;10.2;;;;;;;4.2;95.73047;942.014;;;;
2021/11/11 05:20:36;;;;;;;14.6;9.3;;;;;;;4.3;95.04102;941.9731;;;;
2021/11/11 05:23:02;;;;;;;53.4;36.5;;;;;;;4.19;94.89355;942.0276;;;;
2021/11/11 05:25:28;;;;;;;14.7;9.8;;;;;;;4.24;94.80469;942.1128;;;;
2021/11/11 05:27:53;;;;;;;11.2;6.6;;;;;;;4.31;94.65137;942.1133;;;;
2021/11/11 05:30:18;;;;;;;11.7;6.5;;;;;;;4.14;95.68164;942.0772;;;;
2021/11/11 05:32:43;;;;;;;9.3;6.4;;;;;;;4.21;95.63965;942.0603;;;;
2021/11/11 05:35:08;;;;;;;10.5;6.8;;;;;;;4.18;95.70313;942.1111;;;;
2021/11/11 05:38:17;;;;;;;18.3;9.8;;;;;;;4.19;95.52539;942.1124;;;;
2021/11/11 05:40:42;;;;;;;18.5;10.2;;;;;;;4.17;95.55273;942.0823;;;;
2021/11/11 05:43:08;;;;;;;17.6;10.6;;;;;;;4.18;95.64551;942.1433;;;;
2021/11/11 05:45:34;;;;;;;19.7;11.1;;;;;;;4.25;95.68359;942.1022;;;;
2021/11/11 05:47:59;;;;;;;23.5;13.1;;;;;;;4.22;95.47363;942.1916;;;;
2021/11/11 05:50:24;;;;;;;20.4;12;;;;;;;4.05;95.79883;942.1675;;;;
2021/11/11 05:52:50;;;;;;;16.7;10.3;;;;;;;4.15;95.875;942.1357;;;;
2021/11/11 05:55:15;;;;;;;19.1;10.6;;;;;;;4.23;95.26172;942.1241;;;;
2021/11/11 05:57:40;;;;;;;16.4;9.9;;;;;;;4.14;95.36719;942.2047;;;;
2021/11/11 06:00:05;;;;;;;17.6;10;;;;;;;4.19;95.15234;942.2516;;;;
2021/11/11 06:02:31;;;;;;;13;8.5;;;;;;;4.08;96.53418;942.2417;;;;
2021/11/11 06:04:56;;;;;;;17.5;9.6;;;;;;;4.12;96.60938;942.2899;;;;
2021/11/11 06:07:22;;;;;;;16;9.4;;;;;;;4.25;95.98926;942.2742;;;;
2021/11/11 06:09:47;;;;;;;14.1;8;;;;;;;4.24;95.54688;942.2218;;;;
2021/11/11 06:13:23;;;;;;;11.5;6.4;;;;;;;4.38;95.31836;942.1962;;;;
2021/11/11 06:15:49;;;;;;;11.3;7;;;;;;;4.55;95.93066;942.2512;;;;
2021/11/11 06:18:15;;;;;;;12.6;7.3;;;;;;;4.61;95.2334;942.2695;;;;
2021/11/11 06:20:44;;;;;;;9.9;7.8;;;;;;;4.68;94.22656;942.3173;;;;
2021/11/11 06:23:06;;;;;;;10.9;7.3;;;;;;;4.66;94.19824;942.2864;;;;
2021/11/11 06:25:29;;;;;;;12.4;7.6;;;;;;;4.73;94.12402;942.1702;;;;
2021/11/11 06:27:54;;;;;;;15.1;7.7;;;;;;;4.67;94.37109;942.1908;;;;
2021/11/11 06:30:19;;;;;;;15.8;9.7;;;;;;;4.61;94.19922;942.3131;;;;
2021/11/11 06:32:45;;;;;;;12.4;7.5;;;;;;;4.71;94.1543;942.3262;;;;
2021/11/11 06:35:10;;;;;;;12.4;8.1;;;;;;;4.62;94.35938;942.3183;;;;
2021/11/11 06:37:35;;;;;;;13.9;8.3;;;;;;;4.77;93.62695;942.2346;;;;
2021/11/11 06:40:00;;;;;;;22.5;11.2;;;;;;;4.88;93.68457;942.2999;;;;
2021/11/11 06:42:25;;;;;;;21.7;10.6;;;;;;;5;92.67383;942.4373;;;;
2021/11/11 06:44:55;;;;;;;29.5;16.3;;;;;;;4.96;91.8877;942.4519;;;;
2021/11/11 06:47:21;;;;;;;35;17;;;;;;;4.93;91.87988;942.5123;;;;
2021/11/11 06:49:47;;;;;;;35.4;18.5;;;;;;;5.07;91.60547;942.5847;;;;
2021/11/11 06:52:13;;;;;;;33.9;18;;;;;;;5.2;91.33203;942.5754;;;;
2021/11/11 06:54:40;;;;;;;34.3;18.3;;;;;;;5.32;91.49219;942.5413;;;;
2021/11/11 06:57:03;;;;;;;40.7;19.8;;;;;;;5.56;90.15625;942.5801;;;;
2021/11/11 06:59:28;;;;;;;51.3;25.3;;;;;;;5.9;89.89941;942.5665;;;;
2021/11/11 07:01:53;;;;;;;28.9;15.4;;;;;;;6.15;86.95508;942.6342;;;;
2021/11/11 07:04:18;;;;;;;27.8;15.6;;;;;;;6.63;86.0459;942.5833;;;;
2021/11/11 07:06:43;;;;;;;36.3;17.2;;;;;;;6.86;84.17969;942.6437;;;;
2021/11/11 07:09:09;;;;;;;34;15.3;;;;;;;7.37;82.15918;942.6242;;;;
2021/11/11 07:11:33;;;;;;;25.5;12.5;;;;;;;7.99;80.04297;942.6255;;;;
2021/11/11 07:13:59;;;;;;;26;13.1;;;;;;;8.34;77.9502;942.6328;;;;
2021/11/11 07:16:25;;;;;;;27.4;14.3;;;;;;;9.04;76.33496;942.5724;;;;
2021/11/11 07:18:50;;;;;;;64.2;32.3;;;;;;;9.27;75.02148;942.6373;;;;
2021/11/11 07:21:16;;;;;;;47.9;24.8;;;;;;;9.17;73.5918;942.6308;;;;
2021/11/11 07:23:41;;;;;;;27.1;17.1;;;;;;;8.08;77.99316;942.6129;;;;
2021/11/11 07:26:07;;;;;;;22.5;11.7;;;;;;;8.23;78.30664;942.6791;;;;
2021/11/11 07:28:32;;;;;;;15.3;8.2;;;;;;;8.58;77.73047;942.707;;;;
2021/11/11 07:30:57;;;;;;;17.3;9.5;;;;;;;9.66;73.93848;942.6578;;;;
2021/11/11 07:33:22;;;;;;;23.2;12;;;;;;;10.6;70.19531;942.728;;;;
2021/11/11 07:35:47;;;;;;;26.2;13;;;;;;;11.26;69.00977;942.6705;;;;
2021/11/11 07:38:13;;;;;;;24;13.7;;;;;;;11.9;66.08691;942.7434;;;;
2021/11/11 07:40:38;;;;;;;23.2;13.1;;;;;;;12.74;63.79395;942.7217;;;;
2021/11/11 07:43:03;;;;;;;18.6;11.1;;;;;;;13.27;62.05664;942.7572;;;;
2021/11/11 07:45:29;;;;;;;17.1;9.7;;;;;;;12.76;63.6709;942.7747;;;;
2021/11/11 07:47:56;;;;;;;18.8;9.9;;;;;;;13;64.87695;942.8631;;;;
2021/11/11 07:50:19;;;;;;;14.8;9;;;;;;;13.7;62.03711;942.7881;;;;
2021/11/11 07:52:45;;;;;;;12.1;7.8;;;;;;;13.29;59.78418;942.8636;;;;
2021/11/11 07:55:10;;;;;;;15.7;8.4;;;;;;;14.29;57.32031;942.7774;;;;
2021/11/11 07:57:35;;;;;;;16;9;;;;;;;14.23;56.18262;942.8189;;;;
2021/11/11 08:00:00;;;;;;;10.7;7.2;;;;;;;14.72;54.87402;942.7894;;;;
2021/11/11 08:02:26;;;;;;;11.3;7;;;;;;;15.13;52.8125;942.843;;;;
2021/11/11 08:04:50;;;;;;;10.9;6.5;;;;;;;15.93;50.63281;942.8409;;;;
2021/11/11 08:07:17;;;;;;;11.7;6.5;;;;;;;16.68;48.03223;942.8739;;;;
2021/11/11 08:09:43;;;;;;;10.1;6.3;;;;;;;17.18;46.82422;942.8384;;;;
2021/11/11 08:12:35;;;;;;;12.7;6;;;;;;;17.39;45.88379;942.783;;;;
2021/11/11 08:15:00;;;;;;;11.2;6;;;;;;;15.79;49.92285;942.7207;;;;
2021/11/11 08:17:29;;;;;;;8.4;6.5;;;;;;;15.44;51.62793;942.7564;;;;
2021/11/11 08:19:56;;;;;;;11.9;6.9;;;;;;;15.9;50.2832;942.776;;;;
2021/11/11 08:22:20;;;;;;;10.2;6.5;;;;;;;16.41;49.1377;942.7668;;;;
2021/11/11 08:24:45;;;;;;;9.2;5.9;;;;;;;16.31;49.58984;942.7683;;;;
2021/11/11 08:27:10;;;;;;;11.1;5.9;;;;;;;16.23;50.16016;942.7631;;;;
2021/11/11 08:29:35;;;;;;;13.6;6.3;;;;;;;14.86;53.68066;942.7584;;;;
2021/11/11 08:32:00;;;;;;;8.8;5.5;;;;;;;14.26;56.08203;942.731;;;;
2021/11/11 08:34:25;;;;;;;12.4;5;;;;;;;14.38;55.86719;942.7087;;;;
2021/11/11 08:36:50;;;;;;;9.9;5.8;;;;;;;15.15;54.5;942.6649;;;;
2021/11/11 08:39:15;;;;;;;10.6;5.3;;;;;;;15.82;52.79199;942.6655;;;;
2021/11/11 08:41:41;;;;;;;10.2;5.1;;;;;;;14.66;55.21191;942.6339;;;;
2021/11/11 08:44:09;;;;;;;10.2;5.6;;;;;;;14.59;56.4248;942.6463;;;;
2021/11/11 08:46:33;;;;;;;10.8;5.7;;;;;;;14.33;57.42676;942.6013;;;;
2021/11/11 08:48:59;;;;;;;11.4;5.7;;;;;;;13.69;59.52832;942.728;;;;
2021/11/11 08:51:23;;;;;;;18.8;6.7;;;;;;;12.9;62.71484;942.7417;;;;
2021/11/11 08:53:48;;;;;;;11.8;6.7;;;;;;;12.19;66.46289;942.6576;;;;
2021/11/11 08:56:13;;;;;;;10.5;5.6;;;;;;;11.79;67.2168;942.5991;;;;
2021/11/11 08:58:39;;;;;;;19.5;8.6;;;;;;;11.54;69.48828;942.5898;;;;
2021/11/11 09:01:06;;;;;;;15;7.9;;;;;;;11.47;69.44336;942.5723;;;;
2021/11/11 09:03:29;;;;;;;11.3;7.6;;;;;;;11.35;70.56738;942.5497;;;;
2021/11/11 09:05:55;;;;;;;16;7;;;;;;;11.4;70.72461;942.5025;;;;
2021/11/11 09:08:20;;;;;;;11.3;6.4;;;;;;;11.57;70.13574;942.4651;;;;
2021/11/11 09:10:45;;;;;;;19.1;7.3;;;;;;;11.64;71.24512;942.4703;;;;
2021/11/11 09:13:10;;;;;;;12.2;6.4;;;;;;;11.51;70.33203;942.5011;;;;
2021/11/11 09:15:35;;;;;;;10.6;6;;;;;;;11.61;70.18652;942.5366;;;;
2021/11/11 09:18:19;;;;;;;11.9;6.4;;;;;;;11.79;70.17969;942.5392;;;;
2021/11/11 09:20:33;;;;;;;25.3;7.4;;;;;;;12.02;70.54004;942.489;;;;
2021/11/11 09:22:58;;;;;;;18.2;6;;;;;;;12.1;70.50586;942.4833;;;;
2021/11/11 09:25:27;;;;;;;11.6;5.1;;;;;;;12.36;69.97656;942.5206;;;;
2021/11/11 09:27:48;;;;;;;13.2;5.7;;;;;;;12.65;69.4707;942.5212;;;;
2021/11/11 09:30:13;;;;;;;15.4;5.2;;;;;;;12.87;67.05078;942.4842;;;;
2021/11/11 09:32:38;;;;;;;10.3;4.7;;;;;;;12.97;65.82617;942.5328;;;;
2021/11/11 09:35:03;;;;;;;14.9;5.9;;;;;;;13.21;66.40137;942.5549;;;;
2021/11/11 09:37:28;;;;;;;17.7;6.3;;;;;;;13.26;65.66309;942.5836;;;;
2021/11/11 09:39:54;;;;;;;14.9;6.3;;;;;;;13.45;65.46191;942.625;;;;
2021/11/11 09:42:19;;;;;;;18.2;5.9;;;;;;;13.55;64.38379;942.4709;;;;
2021/11/11 09:44:45;;;;;;;9.9;5.3;;;;;;;13.75;65.17285;942.489;;;;
2021/11/11 09:47:10;;;;;;;10.3;5.4;;;;;;;13.9;64.62012;942.449;;;;
2021/11/11 09:49:36;;;;;;;8.2;4.2;;;;;;;14.04;63.9502;942.473;;;;
2021/11/11 09:52:02;;;;;;;8.7;4.2;;;;;;;14.2;62.07422;942.5109;;;;
2021/11/11 09:59:18;;;;;;;17.5;5.4;;;;;;;14.79;61.31543;942.4543;;;;
2021/11/11 10:01:46;;;;;;;17.3;5.9;;;;;;;14.96;59.72656;942.4208;;;;
2021/11/11 10:04:09;;;;;;;10.2;4.2;;;;;;;15.06;59.08105;942.3538;;;;
2021/11/11 10:06:33;;;;;;;8.6;4.1;;;;;;;15.19;57.81836;942.3792;;;;
2021/11/11 10:08:58;;;;;;;7.4;3.2;;;;;;;15.23;56.73828;942.3176;;;;
2021/11/11 10:11:26;;;;;;;8.7;3.2;;;;;;;15.34;54.96387;942.2339;;;;
2021/11/11 10:13:50;;;;;;;9.7;3.3;;;;;;;15.31;56.1123;942.2195;;;;
2021/11/11 10:16:16;;;;;;;9.9;3.8;;;;;;;15.4;55.33984;942.2137;;;;
2021/11/11 10:18:41;;;;;;;9.9;3.9;;;;;;;15.56;55.99609;942.2263;;;;
2021/11/11 10:21:09;;;;;;;11.4;3.7;;;;;;;15.67;54.51953;942.1583;;;;
2021/11/11 10:23:34;;;;;;;9.8;3.3;;;;;;;15.71;53.02148;942.1156;;;;
2021/11/11 10:26:04;;;;;;;9.9;3.3;;;;;;;15.93;54.03125;942.1238;;;;
2021/11/11 10:28:31;;;;;;;5.3;2.7;;;;;;;16.06;53.12207;942.1105;;;;
2021/11/11 10:30:56;;;;;;;10.7;3.5;;;;;;;16.25;53.11133;942.0751;;;;
2021/11/11 10:33:21;;;;;;;11.3;3.5;;;;;;;16.37;51.62109;942.006;;;;
2021/11/11 10:35:48;;;;;;;5.9;3;;;;;;;16.5;50.90625;941.9379;;;;
2021/11/11 10:38:13;;;;;;;12.4;3.1;;;;;;;16.76;50.0332;941.9919;;;;
2021/11/11 10:40:38;;;;;;;15.7;3.3;;;;;;;16.85;49.79004;941.9302;;;;
2021/11/11 10:43:04;;;;;;;8.5;3.2;;;;;;;17.03;49.95996;941.9;;;;
2021/11/11 10:45:29;;;;;;;5.8;2.6;;;;;;;17.18;48.14551;941.8333;;;;
2021/11/11 10:47:54;;;;;;;6.6;2.4;;;;;;;17.25;47.60938;941.7958;;;;
2021/11/11 10:50:20;;;;;;;3.8;2.2;;;;;;;17.32;45.42383;941.779;;;;
2021/11/11 10:52:46;;;;;;;4;2;;;;;;;17.36;44.47754;941.7004;;;;
2021/11/11 10:55:40;;;;;;;4.9;2.2;;;;;;;17.59;43.94336;941.6675;;;;
2021/11/11 10:58:05;;;;;;;5.1;2.2;;;;;;;17.69;44.03516;941.6249;;;;
2021/11/11 11:00:30;;;;;;;9.6;2.7;;;;;;;17.86;45.39844;941.6135;;;;
2021/11/11 11:02:57;;;;;;;4.1;2.1;;;;;;;18.03;44.91699;941.5969;;;;
2021/11/11 11:05:22;;;;;;;3.6;2;;;;;;;18.19;44.85059;941.5705;;;;
2021/11/11 11:07:47;;;;;;;3.5;2.2;;;;;;;18.09;44.60938;941.5831;;;;
2021/11/11 11:10:17;;;;;;;5.2;2.4;;;;;;;18.03;44.34863;941.5453;;;;
2021/11/11 11:12:37;;;;;;;2.6;2;;;;;;;18.01;43.71973;941.5034;;;;
2021/11/11 11:15:06;;;;;;;3.1;1.9;;;;;;;18.06;43.43359;941.4594;;;;
2021/11/11 11:17:30;;;;;;;3.2;1.9;;;;;;;18.24;43.06738;941.4095;;;;
2021/11/11 11:19:55;;;;;;;6.8;3.3;;;;;;;18.2;54.27637;941.38;;;;
2021/11/11 11:22:21;;;;;;;4.9;3;;;;;;;18.46;52.14551;941.3339;;;;
2021/11/11 11:24:46;;;;;;;7.8;3;;;;;;;18.6;51.8252;941.3624;;;;
2021/11/11 11:27:14;;;;;;;5.8;3.2;;;;;;;18.91;50.91992;941.3667;;;;
2021/11/11 11:29:40;;;;;;;6.2;2.8;;;;;;;20.22;46.94922;941.3002;;;;
2021/11/11 11:32:06;;;;;;;4.4;2.8;;;;;;;22.41;41.24609;941.2311;;;;
2021/11/11 11:34:27;;;;;;;4;2.9;;;;;;;24.17;36.5459;941.2084;;;;
2021/11/11 11:36:52;;;;;;;7.2;2.5;;;;;;;25.01;35.01074;941.257;;;;
2021/11/11 11:39:17;;;;;;;2.8;2.4;;;;;;;25.46;33.47363;941.2316;;;;
2021/11/11 11:41:43;;;;;;;4.5;2.4;;;;;;;24.63;36.35938;941.2316;;;;
2021/11/11 12:14:53;;;;;;;2.5;2.2;;;;;;;31.15;23.45703;941.0889;;;;
2021/11/11 12:34:37;;;;;;;2.6;1.9;;;;;;;29.77;24.14844;940.9554;;;;
2021/11/11 12:39:05;;;;;;;5;2.2;;;;;;;30.25;23.9834;941.014;;;;
2021/11/11 12:41:27;;;;;;;2.7;2.1;;;;;;;30.2;24.14746;940.9611;;;;
2021/11/11 12:43:53;;;;;;;2.3;1.6;;;;;;;29.45;25.16895;940.9096;;;;
2021/11/11 12:46:18;;;;;;;3.2;1.8;;;;;;;30.65;23.6582;940.8907;;;;
2021/11/11 12:48:46;;;;;;;2.9;1.9;;;;;;;31.6;22.52246;940.8864;;;;
2021/11/11 12:51:10;;;;;;;4.2;1.7;;;;;;;31.54;22.26855;940.8699;;;;
2021/11/11 12:53:41;;;;;;;2.4;1.7;;;;;;;31.95;21.60547;940.8772;;;;
2021/11/11 12:56:06;;;;;;;2.7;1.8;;;;;;;32.25;21.30762;940.8819;;;;
2021/11/11 12:58:29;;;;;;;3;2.1;;;;;;;33.21;20.34277;940.9128;;;;
2021/11/11 13:00:54;;;;;;;3.2;1.9;;;;;;;33.52;19.95996;940.9764;;;;
2021/11/11 13:03:19;;;;;;;2.4;1.6;;;;;;;34.08;19.53906;940.887;;;;
2021/11/11 13:05:45;;;;;;;3;1.9;;;;;;;34.05;19.5625;940.9033;;;;
2021/11/11 13:08:10;;;;;;;3;1.6;;;;;;;34.11;19.15527;940.8733;;;;
2021/11/11 13:10:35;;;;;;;2.2;1.9;;;;;;;33.77;19.50195;940.8839;;;;
2021/11/11 13:13:01;;;;;;;2.3;1.9;;;;;;;33.78;19.12988;940.8405;;;;
2021/11/11 13:15:26;;;;;;;3.9;2.3;;;;;;;33.09;19.90527;940.8439;;;;
2021/11/11 13:18:31;;;;;;;2.7;1.7;;;;;;;33.65;19.5332;940.8;;;;
2021/11/11 13:20:56;;;;;;;2.2;1.5;;;;;;;34.25;18.78809;940.801;;;;
2021/11/11 13:23:28;;;;;;;1.9;1.7;;;;;;;34.33;18.68262;940.7626;;;;
2021/11/11 13:27:52;;;;;;;2.3;1.7;;;;;;;34.32;18.4541;940.7104;;;;
2021/11/11 13:43:51;;;;;;;2.7;1.8;;;;;;;33.17;19.34375;940.76;;;;
2021/11/11 14:04:52;;;;;;;4.9;1.9;;;;;;;28.7;26.11328;940.8396;;;;
2021/11/11 15:15:29;;;;;;;5.9;3.5;;;;;;;16.01;54.56152;941.5112;;;;
2021/11/11 15:17:58;;;;;;;7.5;3.4;;;;;;;15.5;54.99512;941.5812;;;;
2021/11/11 15:20:13;;;;;;;8;4;;;;;;;15.55;55.34668;941.5883;;;;
2021/11/11 15:57:18;;;;;;;11.9;4.8;;;;;;;14.24;59.67188;942.0195;;;;
2021/11/11 16:02:06;;;;;;;22.5;8.4;;;;;;;13.61;62.27637;942.1392;;;;
2021/11/11 16:19:48;;;;;;;12.7;7.2;;;;;;;12.93;69.46973;942.1888;;;;
2021/11/11 16:22:04;;;;;;;15.2;8.3;;;;;;;12.61;71.04883;942.2162;;;;
2021/11/11 16:24:27;;;;;;;12;7.8;;;;;;;12.67;70.89648;942.2586;;;;
2021/11/11 16:26:42;;;;;;;11.5;7.7;;;;;;;12.61;71.38086;942.2322;;;;
2021/11/11 16:29:07;;;;;;;12.3;7.7;;;;;;;12.56;71.61426;942.3557;;;;
2021/11/11 16:31:33;;;;;;;11.4;7.6;;;;;;;12.58;71.73242;942.3894;;;;
2021/11/11 16:33:59;;;;;;;12.3;8;;;;;;;12.39;72.44531;942.3499;;;;
2021/11/11 16:36:23;;;;;;;13.1;8.2;;;;;;;12.32;72.59375;942.4036;;;;
2021/11/11 16:38:48;;;;;;;15.8;8.6;;;;;;;12.35;72.04883;942.4214;;;;
2021/11/11 16:41:13;;;;;;;12.4;7.8;;;;;;;12.44;71.57129;942.4281;;;;
2021/11/11 16:43:40;;;;;;;9.5;7.1;;;;;;;12.48;71.14063;942.4125;;;;
2021/11/11 16:46:06;;;;;;;11.4;7.8;;;;;;;12.49;71.24707;942.4989;;;;
2021/11/11 16:48:31;;;;;;;15.2;9.8;;;;;;;12.28;71.76367;942.4871;;;;
2021/11/11 16:50:57;;;;;;;15.5;9.7;;;;;;;12.14;72.12891;942.4185;;;;
2021/11/11 16:53:23;;;;;;;17.8;11.4;;;;;;;12.14;71.6709;942.5541;;;;
2021/11/11 16:55:47;;;;;;;12.8;8.1;;;;;;;12.08;71.13281;942.5837;;;;
2021/11/11 16:58:12;;;;;;;11.3;7.7;;;;;;;11.74;72.91992;942.6349;;;;
2021/11/11 17:00:38;;;;;;;12.4;8.2;;;;;;;11.54;74.25;942.6211;;;;
2021/11/11 17:03:02;;;;;;;13.8;8.6;;;;;;;11.52;75.01367;942.6232;;;;
2021/11/11 17:05:28;;;;;;;13.1;9;;;;;;;11.45;74.93164;942.6702;;;;
2021/11/11 17:07:57;;;;;;;13;9.3;;;;;;;11.44;74.17578;942.5927;;;;
2021/11/11 17:10:23;;;;;;;13.8;9.2;;;;;;;11.39;74.31543;942.6755;;;;
2021/11/11 17:12:48;;;;;;;19.3;11.6;;;;;;;11.46;74.50977;942.7061;;;;
2021/11/11 17:15:17;;;;;;;20.9;11.5;;;;;;;11.41;74.83301;942.7195;;;;
2021/11/11 17:17:40;;;;;;;18.5;11.2;;;;;;;11.31;74.77051;942.707;;;;
2021/11/11 17:20:10;;;;;;;17.5;11.3;;;;;;;11.26;74.83008;942.7733;;;;
2021/11/11 17:22:40;;;;;;;22;14.7;;;;;;;11.15;74.83398;942.7786;;;;
2021/11/11 17:25:25;;;;;;;19.8;9.7;;;;;;;11.12;74.79492;942.8356;;;;
2021/11/11 17:27:44;;;;;;;16.2;9.4;;;;;;;11.07;75.80273;942.8468;;;;
2021/11/11 17:29:53;;;;;;;16.1;9.1;;;;;;;10.96;75.51172;942.8538;;;;
2021/11/11 17:32:18;;;;;;;17.3;9.9;;;;;;;10.99;75.29883;942.8748;;;;
2021/11/11 17:34:44;;;;;;;21.7;11.3;;;;;;;10.87;75.63086;942.8348;;;;
2021/11/11 17:38:01;;;;;;;19;10.5;;;;;;;10.83;75.68066;942.8691;;;;
2021/11/11 17:39:45;;;;;;;16.6;8.8;;;;;;;10.76;75.84082;942.8822;;;;
2021/11/11 17:42:09;;;;;;;16;8.2;;;;;;;10.68;76.1709;942.8625;;;;
2021/11/11 17:44:35;;;;;;;15.1;8.9;;;;;;;10.62;76.19336;942.8528;;;;
2021/11/11 17:47:05;;;;;;;19.7;10.4;;;;;;;10.54;76.37207;942.8488;;;;
2021/11/11 17:49:32;;;;;;;18.5;10.2;;;;;;;10.54;75.83691;942.856;;;;
2021/11/11 17:51:56;;;;;;;25.7;14.4;;;;;;;10.5;76.99512;942.9636;;;;
2021/11/11 17:54:21;;;;;;;22.2;13;;;;;;;10.41;77.35449;942.954;;;;
2021/11/11 17:56:46;;;;;;;20.8;13.1;;;;;;;10.4;77.10156;942.9781;;;;
2021/11/11 17:59:07;;;;;;;22.8;13.5;;;;;;;10.34;77.14746;942.9756;;;;